createdAt,value
2022-11-15T00:01:08.597Z,22.8
2022-11-15T00:06:30.957Z,22.8
2022-11-15T00:12:04.462Z,22.8
2022-11-15T00:17:26.740Z,22.8
2022-11-15T00:23:05.468Z,22.8
2022-11-15T00:28:43.225Z,22.8
2022-11-15T00:34:07.511Z,22.8
2022-11-15T00:39:44.944Z,22.8
2022-11-15T00:45:23.953Z,22.8
2022-11-15T00:50:32.018Z,22.8
2022-11-15T00:56:09.654Z,22.8
2022-11-15T01:01:47.193Z,22.7
2022-11-15T01:07:10.997Z,22.7
2022-11-15T01:12:48.673Z,22.7
2022-11-15T01:18:26.032Z,22.6
2022-11-15T01:24:04.147Z,22.6
2022-11-15T01:29:42.026Z,22.6
2022-11-15T01:35:19.375Z,22.6
2022-11-15T01:40:56.343Z,22.6
2022-11-15T01:46:18.568Z,22.6
2022-11-15T01:51:55.726Z,22.6
2022-11-15T01:57:33.506Z,22.6
2022-11-15T02:03:11.429Z,22.5
2022-11-15T02:08:33.989Z,22.5
2022-11-15T02:13:24.339Z,22.5
2022-11-15T02:19:01.219Z,22.5
2022-11-15T02:24:38.348Z,22.4
2022-11-15T02:29:45.060Z,22.4
2022-11-15T02:35:21.835Z,22.4
2022-11-15T02:40:58.801Z,22.4
2022-11-15T02:46:20.682Z,22.4
2022-11-15T02:51:42.329Z,22.4
2022-11-15T02:56:48.171Z,22.4
2022-11-15T03:02:25.866Z,22.4
2022-11-15T03:07:48.700Z,22.4
2022-11-15T03:13:10.438Z,22.3
2022-11-15T03:18:16.787Z,22.3
2022-11-15T03:23:37.710Z,22.3
2022-11-15T03:28:59.090Z,22.3
2022-11-15T03:34:23.970Z,22.3
2022-11-15T03:39:51.637Z,22.3
2022-11-15T03:45:28.372Z,22.3
2022-11-15T03:51:05.590Z,22.3
2022-11-15T03:56:43.011Z,22.3
2022-11-15T04:01:49.534Z,22.3
2022-11-15T04:07:11.731Z,22.3
2022-11-15T04:12:19.125Z,22.3
2022-11-15T04:17:40.564Z,22.3
2022-11-15T04:23:18.320Z,22.2
2022-11-15T04:29:01.469Z,22.3
2022-11-15T04:34:24.280Z,22.3
2022-11-15T04:40:06.663Z,22.2
2022-11-15T04:45:43.117Z,22.2
2022-11-15T04:51:05.043Z,22.2
2022-11-15T04:56:42.797Z,22.2
2022-11-15T05:02:16.574Z,22.2
2022-11-15T05:07:53.954Z,22.2
2022-11-15T05:13:15.829Z,22.2
2022-11-15T05:18:40.397Z,22.1
2022-11-15T05:24:18.376Z,22.1
2022-11-15T05:29:40.535Z,22.2
2022-11-15T05:35:02.730Z,22.1
2022-11-15T05:40:39.914Z,22.1
2022-11-15T05:46:01.535Z,22.1
2022-11-15T05:51:38.257Z,22.1
2022-11-15T05:57:05.089Z,22.1
2022-11-15T06:02:27.705Z,22.1
2022-11-15T06:07:50.464Z,22.1
2022-11-15T06:13:28.111Z,22.1
2022-11-15T06:19:11.802Z,22
2022-11-15T06:24:32.897Z,22
2022-11-15T06:30:10.417Z,22
2022-11-15T06:35:32.626Z,21.9
2022-11-15T06:41:09.075Z,21.9
2022-11-15T06:46:47.055Z,21.9
2022-11-15T06:52:24.206Z,21.9
2022-11-15T06:58:01.833Z,21.9
2022-11-15T07:03:39.972Z,21.9
2022-11-15T07:09:17.265Z,21.9
2022-11-15T07:14:59.869Z,21.9
2022-11-15T07:20:22.276Z,21.9
2022-11-15T07:25:44.545Z,21.8
2022-11-15T07:31:08.204Z,21.8
2022-11-15T07:36:46.067Z,21.8
2022-11-15T07:42:23.400Z,21.8
2022-11-15T07:48:01.396Z,21.8
2022-11-15T07:53:34.190Z,21.8
2022-11-15T07:58:57.052Z,21.8
2022-11-15T08:04:36.151Z,21.8
2022-11-15T08:10:14.176Z,21.8
2022-11-15T08:15:57.463Z,21.8
2022-11-15T08:21:35.266Z,21.8
2022-11-15T08:27:14.080Z,21.8
2022-11-15T08:32:51.887Z,21.8
2022-11-15T08:38:44.277Z,21.8
2022-11-15T08:44:23.161Z,21.7
2022-11-15T08:50:01.266Z,21.7
2022-11-15T08:55:41.308Z,21.7
2022-11-15T09:01:19.429Z,21.7
2022-11-15T09:06:59.953Z,21.7
2022-11-15T09:13:09.219Z,21.6
2022-11-15T09:18:48.957Z,21.7
2022-11-15T09:24:33.130Z,21.6
2022-11-15T09:30:46.643Z,21.6
2022-11-15T09:36:27.219Z,21.6
2022-11-15T09:42:11.339Z,21.6
2022-11-15T09:47:50.578Z,21.6
2022-11-15T09:53:51.004Z,21.6
2022-11-15T10:00:04.197Z,21.5
2022-11-15T10:06:12.399Z,21.6
2022-11-15T10:12:14.759Z,21.5
2022-11-15T10:17:52.491Z,21.5
2022-11-15T10:23:31.134Z,21.5
2022-11-15T10:28:58.312Z,21.5
2022-11-15T10:34:38.259Z,21.5
2022-11-15T10:41:51.798Z,21.4
2022-11-15T10:48:12.777Z,21.4
2022-11-15T10:53:50.667Z,21.5
2022-11-15T10:59:37.733Z,21.4
2022-11-15T11:05:17.148Z,21.4
2022-11-15T11:11:36.357Z,21.4
2022-11-15T11:17:14.057Z,21.4
2022-11-15T11:22:42.328Z,21.4
2022-11-15T11:28:20.758Z,21.3
2022-11-15T11:34:02.283Z,21.4
2022-11-15T11:39:40.318Z,21.4
2022-11-15T11:45:01.996Z,21.3
2022-11-15T11:50:40.209Z,21.3
2022-11-15T11:56:19.072Z,31.3
2022-11-15T12:02:02.675Z,44.9
2022-11-15T12:07:40.803Z,38.8
2022-11-15T12:13:24.575Z,35.8
2022-11-15T12:19:02.537Z,33.5
2022-11-15T12:24:39.570Z,39.6
2022-11-15T12:30:30.948Z,46.7
2022-11-15T12:36:08.957Z,39.5
2022-11-15T12:41:49.211Z,36.4
2022-11-15T12:46:56.223Z,34.3
2022-11-15T12:52:03.081Z,32.5
2022-11-15T12:57:25.061Z,31
2022-11-15T13:03:04.101Z,43.8
2022-11-15T13:08:41.007Z,39.6
2022-11-15T13:14:22.230Z,36.4
2022-11-15T13:20:00.176Z,34
2022-11-15T13:25:37.805Z,32.1
2022-11-15T13:30:59.753Z,30.6
2022-11-15T13:36:54.903Z,29.3
2022-11-15T13:42:33.399Z,28.3
2022-11-15T13:48:12.342Z,27.4
2022-11-15T13:53:54.068Z,26.7
2022-11-15T13:59:32.374Z,26.1
2022-11-15T14:05:09.773Z,25.6
2022-11-15T14:10:53.797Z,25.1
2022-11-15T14:16:31.594Z,24.6
2022-11-15T14:21:53.707Z,24.3
2022-11-15T14:27:19.299Z,24
2022-11-15T14:32:40.788Z,23.8
2022-11-15T14:38:02.750Z,23.5
2022-11-15T14:43:25.573Z,23.3
2022-11-15T14:48:48.076Z,23.1
2022-11-15T14:54:16.427Z,22.9
2022-11-15T14:59:39.293Z,22.8
2022-11-15T15:05:06.970Z,22.6
2022-11-15T15:10:54.878Z,22.5
2022-11-15T15:16:21.262Z,22.4
2022-11-15T15:21:53.028Z,22.3
2022-11-15T15:27:00.430Z,22.1
2022-11-15T15:32:23.294Z,22.1
2022-11-15T15:37:45.129Z,22
2022-11-15T15:43:09.651Z,21.9
2022-11-15T15:48:32.517Z,21.8
2022-11-15T15:54:03.056Z,21.8
2022-11-15T15:58:57.380Z,21.7
2022-11-15T16:04:04.816Z,21.6
2022-11-15T16:09:41.444Z,21.6
2022-11-15T16:15:03.456Z,21.5
2022-11-15T16:20:26.420Z,21.5
2022-11-15T16:25:48.776Z,21.4
2022-11-15T16:31:13.302Z,21.5
2022-11-15T16:36:46.942Z,21.9
2022-11-15T16:41:53.501Z,22.3
2022-11-15T16:47:20.329Z,22.6
2022-11-15T16:52:43.111Z,22.8
2022-11-15T16:58:04.707Z,23.1
2022-11-15T17:03:12.066Z,23.3
2022-11-15T17:08:39.051Z,23.4
2022-11-15T17:13:45.368Z,23.6
2022-11-15T17:19:07.907Z,23.5
2022-11-15T17:24:30.096Z,23.6
2022-11-15T17:29:57.089Z,23.7
2022-11-15T17:35:04.079Z,23.9
2022-11-15T17:40:26.417Z,24.2
2022-11-15T17:46:04.473Z,24.4
2022-11-15T17:51:26.932Z,24.5
2022-11-15T17:56:54.787Z,24.6
2022-11-15T18:02:40.057Z,24.8
2022-11-15T18:08:04.046Z,25
2022-11-15T18:13:41.861Z,25.1
2022-11-15T18:19:08.658Z,25.4
2022-11-15T18:24:46.678Z,25.6
2022-11-15T18:30:26.225Z,25.7
2022-11-15T18:35:34.189Z,25.9
2022-11-15T18:41:17.039Z,26.1
2022-11-15T18:46:39.739Z,26.4
2022-11-15T18:52:02.299Z,26.5
2022-11-15T18:57:40.590Z,26.6
2022-11-15T19:03:23.322Z,26.5
2022-11-15T19:09:05.928Z,26.4
2022-11-15T19:14:43.300Z,26.4
2022-11-15T19:20:20.900Z,26.3
2022-11-15T19:26:02.700Z,26.2
2022-11-15T19:31:40.769Z,26.1
2022-11-15T19:37:24.155Z,25.9
2022-11-15T19:43:06.447Z,25.8
2022-11-15T19:48:35.538Z,25.8
2022-11-15T19:54:00.740Z,25.6
2022-11-15T19:59:38.528Z,25.5
2022-11-15T20:05:18.459Z,25.4
2022-11-15T20:10:40.877Z,25.3
2022-11-15T20:16:02.738Z,25.3
2022-11-15T20:21:43.885Z,25.1
2022-11-15T20:27:22.043Z,25.1
2022-11-15T20:32:59.652Z,25
2022-11-15T20:38:38.012Z,24.9
2022-11-15T20:44:05.884Z,24.8
2022-11-15T20:49:48.127Z,24.8
2022-11-15T20:55:56.712Z,24.7
2022-11-15T21:01:20.241Z,24.6
2022-11-15T21:06:47.532Z,24.6
2022-11-15T21:12:26.917Z,24.5
2022-11-15T21:17:51.488Z,24.4
2022-11-15T21:23:19.453Z,24.4
2022-11-15T21:28:57.446Z,24.3
2022-11-15T21:34:41.390Z,24.3
2022-11-15T21:40:04.223Z,24.3
2022-11-15T21:45:42.752Z,24.2
2022-11-15T21:51:25.471Z,24.1
2022-11-15T21:56:16.680Z,24.1
2022-11-15T22:01:39.560Z,24.1
2022-11-15T22:07:07.338Z,24.1
2022-11-15T22:12:46.465Z,24
2022-11-15T22:18:09.295Z,23.9
2022-11-15T22:24:02.556Z,23.9
2022-11-15T22:28:58.826Z,23.9
2022-11-15T22:34:20.736Z,23.9
2022-11-15T22:40:29.483Z,23.9
2022-11-15T22:46:06.084Z,23.8
2022-11-15T22:51:44.680Z,23.8
2022-11-15T22:57:27.308Z,23.8
2022-11-15T23:02:33.921Z,23.8
2022-11-15T23:08:16.101Z,23.8
2022-11-15T23:13:53.990Z,23.7
2022-11-15T23:19:32.136Z,23.7
2022-11-15T23:25:33.782Z,23.7
2022-11-15T23:31:11.733Z,23.7
2022-11-15T23:36:56.124Z,23.7
2022-11-15T23:42:40.225Z,23.7
2022-11-15T23:48:18.395Z,23.7
2022-11-15T23:53:55.498Z,23.6
2022-11-15T23:59:32.178Z,23.6
